createdAt,value
2018-11-05T00:01:40.172Z,12.80
2018-11-05T00:04:08.379Z,12.80
2018-11-05T00:06:36.527Z,12.80
2018-11-05T00:09:07.656Z,12.80
2018-11-05T00:11:35.743Z,12.90
2018-11-05T00:14:03.925Z,12.80
2018-11-05T00:16:32.093Z,12.80
2018-11-05T00:19:01.212Z,12.80
2018-11-05T00:21:29.342Z,12.80
2018-11-05T00:23:57.459Z,12.80
2018-11-05T00:26:25.648Z,12.80
2018-11-05T00:28:53.766Z,12.80
2018-11-05T00:31:21.893Z,12.80
2018-11-05T00:33:50.003Z,12.70
2018-11-05T00:36:18.131Z,12.90
2018-11-05T00:38:46.265Z,12.90
2018-11-05T00:41:14.471Z,12.90
2018-11-05T00:43:42.665Z,13.00
2018-11-05T00:46:10.813Z,12.90
2018-11-05T00:48:38.971Z,12.90
2018-11-05T00:51:07.043Z,12.80
2018-11-05T00:53:35.226Z,12.90
2018-11-05T00:56:03.399Z,12.80
2018-11-05T00:58:31.596Z,12.80
2018-11-05T01:00:59.736Z,12.70
2018-11-05T01:03:27.921Z,12.70
2018-11-05T01:05:56.086Z,12.60
2018-11-05T01:08:27.508Z,12.60
2018-11-05T01:10:56.650Z,12.60
2018-11-05T01:13:25.712Z,12.50
2018-11-05T01:15:53.791Z,12.60
2018-11-05T01:18:21.858Z,12.50
2018-11-05T01:20:49.959Z,12.50
2018-11-05T01:23:18.123Z,12.40
2018-11-05T01:25:46.328Z,12.40
2018-11-05T01:28:14.508Z,12.40
2018-11-05T01:30:42.661Z,12.40
2018-11-05T01:33:10.833Z,12.40
2018-11-05T01:35:38.986Z,12.40
2018-11-05T01:38:07.189Z,12.50
2018-11-05T01:40:35.347Z,12.50
2018-11-05T01:43:03.537Z,12.40
2018-11-05T01:45:32.696Z,12.40
2018-11-05T01:48:00.788Z,12.40
2018-11-05T01:50:29.895Z,12.30
2018-11-05T01:52:58.059Z,12.30
2018-11-05T01:55:26.246Z,12.30
2018-11-05T01:57:54.407Z,12.30
2018-11-05T02:00:22.564Z,12.20
2018-11-05T02:02:50.635Z,12.20
2018-11-05T02:05:18.707Z,12.40
2018-11-05T02:07:46.984Z,12.40
2018-11-05T02:10:16.368Z,12.40
2018-11-05T02:12:44.391Z,12.40
2018-11-05T02:15:12.834Z,12.40
2018-11-05T02:17:42.299Z,12.30
2018-11-05T02:20:10.529Z,12.30
2018-11-05T02:22:39.096Z,12.20
2018-11-05T02:25:07.867Z,12.30
2018-11-05T02:27:35.978Z,12.20
2018-11-05T02:30:05.924Z,12.30
2018-11-05T02:32:34.079Z,12.10
2018-11-05T02:35:02.261Z,12.20
2018-11-05T02:37:30.403Z,12.10
2018-11-05T02:39:58.495Z,12.00
2018-11-05T02:42:26.701Z,11.90
2018-11-05T02:44:54.874Z,11.90
2018-11-05T02:47:22.994Z,12.00
2018-11-05T02:49:51.096Z,12.00
2018-11-05T02:52:19.271Z,12.00
2018-11-05T02:54:47.436Z,11.90
2018-11-05T02:57:15.602Z,11.80
2018-11-05T02:59:43.891Z,11.80
2018-11-05T03:02:12.120Z,11.90
2018-11-05T03:04:40.213Z,11.90
2018-11-05T03:07:08.327Z,11.90
2018-11-05T03:09:36.522Z,12.00
2018-11-05T03:12:05.289Z,12.00
2018-11-05T03:14:36.218Z,12.00
2018-11-05T03:17:04.714Z,11.90
2018-11-05T03:19:32.869Z,11.80
2018-11-05T03:22:01.085Z,11.60
2018-11-05T03:24:29.199Z,11.70
2018-11-05T03:26:57.331Z,11.60
2018-11-05T03:29:25.505Z,11.60
2018-11-05T03:31:53.630Z,11.60
2018-11-05T03:34:21.833Z,11.70
2018-11-05T03:36:50.009Z,11.70
2018-11-05T03:39:18.156Z,11.90
2018-11-05T03:41:46.312Z,12.00
2018-11-05T03:44:14.521Z,12.00
2018-11-05T03:46:42.676Z,12.10
2018-11-05T03:49:11.043Z,12.40
2018-11-05T03:51:39.147Z,12.40
2018-11-05T03:54:08.013Z,12.40
2018-11-05T03:56:36.200Z,12.50
2018-11-05T03:59:05.891Z,12.40
2018-11-05T04:01:33.996Z,12.40
2018-11-05T04:04:02.213Z,12.40
2018-11-05T04:06:30.354Z,12.30
2018-11-05T04:08:58.515Z,12.30
2018-11-05T04:11:26.759Z,12.20
2018-11-05T04:13:54.856Z,12.10
2018-11-05T04:16:25.156Z,12.00
2018-11-05T04:18:53.270Z,12.00
2018-11-05T04:21:21.455Z,11.90
2018-11-05T04:23:49.631Z,12.00
2018-11-05T04:26:17.813Z,11.90
2018-11-05T04:28:45.977Z,11.90
2018-11-05T04:31:14.136Z,12.10
2018-11-05T04:33:42.316Z,12.10
2018-11-05T04:36:10.480Z,12.20
2018-11-05T04:38:38.754Z,12.20
2018-11-05T04:41:08.876Z,12.10
2018-11-05T04:43:37.049Z,11.90
2018-11-05T04:46:05.653Z,11.90
2018-11-05T04:48:33.823Z,11.90
2018-11-05T04:51:01.992Z,11.80
2018-11-05T04:53:30.179Z,11.70
2018-11-05T04:55:58.324Z,11.70
2018-11-05T04:58:26.527Z,11.60
2018-11-05T05:00:54.691Z,11.60
2018-11-05T05:03:22.946Z,11.60
2018-11-05T05:05:51.048Z,11.60
2018-11-05T05:08:19.227Z,11.60
2018-11-05T05:10:47.368Z,11.60
2018-11-05T05:13:15.466Z,11.60
2018-11-05T05:15:43.611Z,11.60
2018-11-05T05:18:11.844Z,11.50
2018-11-05T05:20:39.994Z,11.40
2018-11-05T05:23:08.248Z,11.40
2018-11-05T05:25:36.328Z,11.30
2018-11-05T05:28:04.482Z,11.30
2018-11-05T05:30:32.706Z,11.30
2018-11-05T05:33:00.914Z,11.30
2018-11-05T05:35:29.040Z,11.20
2018-11-05T05:37:57.254Z,11.10
2018-11-05T05:40:25.364Z,11.10
2018-11-05T05:42:53.541Z,11.10
2018-11-05T05:45:21.728Z,11.20
2018-11-05T05:47:50.824Z,11.10
2018-11-05T05:50:19.093Z,11.20
2018-11-05T05:52:48.580Z,11.10
2018-11-05T05:55:16.857Z,11.20
2018-11-05T05:57:45.224Z,11.20
2018-11-05T06:00:15.654Z,11.20
2018-11-05T06:02:43.780Z,11.20
2018-11-05T06:05:12.955Z,11.20
2018-11-05T06:07:43.555Z,11.20
2018-11-05T06:10:12.861Z,11.10
2018-11-05T06:12:40.981Z,11.20
2018-11-05T06:15:12.396Z,11.20
2018-11-05T06:17:41.092Z,11.20
2018-11-05T06:20:11.809Z,11.20
2018-11-05T06:22:39.930Z,11.10
2018-11-05T06:25:08.213Z,11.20
2018-11-05T06:27:36.754Z,11.20
2018-11-05T06:30:08.322Z,11.20
2018-11-05T06:32:36.501Z,11.20
2018-11-05T06:35:05.297Z,11.30
2018-11-05T06:37:33.463Z,11.30
2018-11-05T06:40:01.596Z,11.40
2018-11-05T06:42:29.881Z,11.40
2018-11-05T06:44:58.091Z,11.50
2018-11-05T06:47:26.147Z,11.60
2018-11-05T06:49:54.331Z,11.70
2018-11-05T06:52:22.523Z,11.80
2018-11-05T06:54:50.705Z,11.80
2018-11-05T06:57:18.893Z,11.90
2018-11-05T06:59:47.045Z,11.90
2018-11-05T07:02:15.223Z,12.00
2018-11-05T07:04:43.419Z,12.00
2018-11-05T07:07:11.563Z,12.00
2018-11-05T07:09:39.780Z,12.10
2018-11-05T07:12:07.909Z,12.00
2018-11-05T07:14:36.110Z,12.00
2018-11-05T07:17:04.430Z,12.10
2018-11-05T07:19:32.659Z,12.10
2018-11-05T07:22:00.890Z,12.20
2018-11-05T07:24:29.085Z,12.20
2018-11-05T07:26:57.275Z,12.20
2018-11-05T07:29:25.471Z,12.20
2018-11-05T07:31:53.667Z,12.30
2018-11-05T07:34:21.832Z,12.30
2018-11-05T07:36:49.964Z,12.50
2018-11-05T07:39:18.152Z,12.50
2018-11-05T07:41:46.337Z,12.60
2018-11-05T07:44:14.514Z,12.70
2018-11-05T07:46:42.675Z,12.70
2018-11-05T07:49:10.807Z,12.70
2018-11-05T07:51:39.016Z,12.80
2018-11-05T07:54:09.129Z,12.80
2018-11-05T07:56:37.338Z,12.90
2018-11-05T07:59:06.495Z,12.90
2018-11-05T08:01:35.624Z,12.90
2018-11-05T08:04:03.830Z,13.00
2018-11-05T08:06:31.908Z,13.00
2018-11-05T08:09:01.044Z,13.00
2018-11-05T08:11:29.208Z,13.10
2018-11-05T08:13:57.359Z,13.10
2018-11-05T08:16:25.487Z,13.20
2018-11-05T08:18:53.620Z,13.20
2018-11-05T08:21:21.796Z,13.30
2018-11-05T08:23:49.972Z,13.30
2018-11-05T08:26:18.169Z,13.50
2018-11-05T08:28:46.389Z,13.60
2018-11-05T08:31:15.572Z,13.70
2018-11-05T08:40:44.069Z,13.70
2018-11-05T08:43:12.221Z,14.00
2018-11-05T08:45:43.374Z,14.20
2018-11-05T08:48:11.585Z,14.30
2018-11-05T08:50:39.907Z,14.80
2018-11-05T08:53:09.128Z,15.30
2018-11-05T08:55:37.297Z,15.50
2018-11-05T08:58:06.556Z,15.40
2018-11-05T09:00:40.333Z,15.20
2018-11-05T09:03:08.787Z,15.10
2018-11-05T09:05:36.966Z,15.20
2018-11-05T09:08:05.191Z,15.20
2018-11-05T09:10:33.365Z,15.20
2018-11-05T09:13:01.508Z,15.20
2018-11-05T09:15:29.657Z,15.20
2018-11-05T09:17:57.827Z,15.30
2018-11-05T09:20:26.041Z,15.40
2018-11-05T09:22:54.180Z,15.60
2018-11-05T09:25:22.433Z,15.70
2018-11-05T09:29:15.042Z,15.70
2018-11-05T09:31:43.234Z,15.50
2018-11-05T09:34:12.377Z,15.60
2018-11-05T09:36:40.590Z,15.50
2018-11-05T09:39:09.449Z,15.70
2018-11-05T09:41:37.632Z,15.80
2018-11-05T09:44:05.803Z,16.00
2018-11-05T09:46:34.907Z,16.10
2018-11-05T09:49:03.072Z,16.10
2018-11-05T09:51:32.270Z,16.20
2018-11-05T09:54:00.469Z,16.30
2018-11-05T09:56:28.624Z,16.50
2018-11-05T09:58:56.748Z,16.20
2018-11-05T10:01:24.859Z,16.50
2018-11-05T10:03:54.916Z,16.60
2018-11-05T10:06:23.540Z,16.80
2018-11-05T10:08:51.761Z,17.10
2018-11-05T10:11:20.200Z,17.30
2018-11-05T10:13:50.360Z,17.30
2018-11-05T10:16:18.605Z,17.30
2018-11-05T10:18:47.724Z,17.10
2018-11-05T10:21:15.904Z,17.10
2018-11-05T10:23:44.044Z,17.00
2018-11-05T10:26:12.328Z,17.30
2018-11-05T10:28:40.504Z,17.20
2018-11-05T10:31:08.712Z,17.30
2018-11-05T10:33:36.955Z,17.40
2018-11-05T10:36:05.012Z,17.50
2018-11-05T10:38:33.298Z,17.60
2018-11-05T10:41:01.395Z,17.60
2018-11-05T10:43:29.602Z,17.80
2018-11-05T10:45:58.834Z,17.80
2018-11-05T10:48:26.928Z,17.50
2018-11-05T10:50:55.117Z,17.60
2018-11-05T10:53:23.383Z,17.70
2018-11-05T10:55:51.469Z,17.80
2018-11-05T10:58:19.680Z,17.90
2018-11-05T11:00:53.193Z,17.80
2018-11-05T11:03:21.306Z,17.80
2018-11-05T11:05:49.549Z,18.10
2018-11-05T11:08:17.654Z,18.30
2018-11-05T11:10:45.805Z,18.20
2018-11-05T11:13:15.960Z,18.30
2018-11-05T11:15:44.115Z,18.10
2018-11-05T11:18:12.295Z,18.20
2018-11-05T11:20:42.416Z,18.20
2018-11-05T11:23:11.518Z,18.60
2018-11-05T11:25:40.733Z,18.80
2018-11-05T11:28:09.048Z,19.30
2018-11-05T11:30:38.159Z,19.70
2018-11-05T11:33:06.428Z,19.90
2018-11-05T11:35:35.555Z,21.00
2018-11-05T11:38:03.788Z,21.10
2018-11-05T11:40:33.051Z,20.70
2018-11-05T11:43:02.223Z,20.70
2018-11-05T11:45:33.407Z,20.10
2018-11-05T11:48:01.551Z,19.70
2018-11-05T11:50:30.789Z,19.20
2018-11-05T11:52:58.986Z,19.20
2018-11-05T11:55:28.015Z,18.90
2018-11-05T11:57:56.173Z,18.70
2018-11-05T12:00:25.483Z,18.70
2018-11-05T12:02:54.187Z,18.50
2018-11-05T12:05:22.567Z,18.40
2018-11-05T12:07:52.575Z,18.30
2018-11-05T12:10:22.596Z,18.20
2018-11-05T12:12:52.760Z,18.40
2018-11-05T12:15:21.799Z,18.40
2018-11-05T12:17:51.123Z,18.50
2018-11-05T12:20:20.659Z,18.40
2018-11-05T12:22:49.307Z,18.30
2018-11-05T12:25:17.514Z,18.20
2018-11-05T12:27:45.695Z,17.90
2018-11-05T12:30:21.068Z,17.60
2018-11-05T12:32:49.988Z,17.40
2018-11-05T12:35:18.188Z,17.20
2018-11-05T12:37:47.470Z,17.20
2018-11-05T12:40:18.623Z,17.10
2018-11-05T12:42:47.854Z,17.00
2018-11-05T12:45:16.023Z,17.10
2018-11-05T12:47:44.197Z,17.00
2018-11-05T12:50:15.788Z,17.00
2018-11-05T12:52:45.316Z,17.00
2018-11-05T12:55:13.561Z,16.90
2018-11-05T12:57:41.781Z,16.80
2018-11-05T13:00:13.764Z,16.80
2018-11-05T13:02:41.935Z,16.60
2018-11-05T13:05:11.231Z,16.60
2018-11-05T13:07:39.501Z,16.50
2018-11-05T13:10:11.087Z,16.50
2018-11-05T13:12:39.387Z,16.40
2018-11-05T13:15:08.069Z,16.40
2018-11-05T13:17:36.465Z,16.50
2018-11-05T13:20:05.167Z,16.40
2018-11-05T13:22:33.360Z,16.30
2018-11-05T13:25:01.554Z,16.30
2018-11-05T13:27:29.730Z,16.20
2018-11-05T13:29:57.883Z,16.20
2018-11-05T13:32:26.053Z,16.10
2018-11-05T13:34:54.219Z,16.10
2018-11-05T13:37:22.704Z,16.00
2018-11-05T13:39:52.524Z,16.00
2018-11-05T13:42:20.709Z,16.00
2018-11-05T13:44:49.995Z,16.00
2018-11-05T13:47:18.787Z,15.90
2018-11-05T13:49:48.552Z,15.90
2018-11-05T13:52:16.534Z,15.90
2018-11-05T13:54:44.823Z,15.90
2018-11-05T13:57:12.822Z,15.90
2018-11-05T13:59:40.971Z,15.80
2018-11-05T14:02:09.323Z,15.80
2018-11-05T14:04:37.645Z,15.70
2018-11-05T14:07:05.730Z,15.80
2018-11-05T14:09:33.881Z,15.80
2018-11-05T14:12:02.075Z,15.70
2018-11-05T14:14:30.269Z,15.70
2018-11-05T14:16:58.575Z,15.70
2018-11-05T14:19:26.721Z,15.70
2018-11-05T14:21:54.914Z,15.70
2018-11-05T14:24:24.141Z,15.70
2018-11-05T14:26:52.641Z,15.70
2018-11-05T14:29:22.316Z,15.70
2018-11-05T14:31:50.048Z,15.70
2018-11-05T14:34:19.232Z,15.60
2018-11-05T14:36:47.511Z,15.60
2018-11-05T14:39:16.641Z,15.60
2018-11-05T14:43:53.976Z,15.50
2018-11-05T14:46:24.156Z,15.50
2018-11-05T14:48:52.283Z,15.50
2018-11-05T14:51:20.549Z,15.50
2018-11-05T14:53:48.775Z,15.50
2018-11-05T14:56:16.937Z,15.40
2018-11-05T14:58:45.191Z,15.40
2018-11-05T15:01:13.392Z,15.40
2018-11-05T15:03:41.844Z,15.40
2018-11-05T15:06:10.034Z,15.30
2018-11-05T15:08:38.257Z,15.30
2018-11-05T15:11:12.400Z,15.40
2018-11-05T15:13:41.509Z,15.30
2018-11-05T15:16:13.378Z,15.30
2018-11-05T15:18:41.991Z,15.30
2018-11-05T15:21:12.165Z,15.30
2018-11-05T15:23:48.773Z,15.30
2018-11-05T15:26:17.303Z,15.20
2018-11-05T15:28:47.467Z,15.30
2018-11-05T15:31:16.785Z,15.30
2018-11-05T15:33:46.000Z,15.20
2018-11-05T15:36:14.425Z,15.20
2018-11-05T15:38:42.742Z,15.30
2018-11-05T15:41:11.966Z,15.30
2018-11-05T15:43:40.225Z,15.30
2018-11-05T15:46:08.395Z,15.40
2018-11-05T15:48:37.249Z,15.30
2018-11-05T15:51:05.582Z,15.20
2018-11-05T15:53:34.036Z,15.20
2018-11-05T15:56:02.912Z,15.20
2018-11-05T15:58:31.119Z,15.20
2018-11-05T16:01:00.388Z,15.20
2018-11-05T16:03:28.632Z,15.10
2018-11-05T16:05:56.841Z,15.20
2018-11-05T16:08:25.039Z,15.20
2018-11-05T16:10:53.273Z,15.10
2018-11-05T16:13:21.564Z,15.10
2018-11-05T16:15:49.731Z,15.20
2018-11-05T16:18:17.905Z,15.10
2018-11-05T16:20:48.065Z,15.10
2018-11-05T16:23:16.220Z,15.10
2018-11-05T16:25:44.470Z,15.20
2018-11-05T16:28:12.556Z,15.20
2018-11-05T16:30:40.761Z,15.10
2018-11-05T16:33:08.933Z,15.10
2018-11-05T16:35:37.467Z,15.10
2018-11-05T16:38:05.420Z,15.10
2018-11-05T16:40:33.585Z,15.10
2018-11-05T16:43:01.687Z,15.00
2018-11-05T16:45:29.993Z,15.10
2018-11-05T16:47:58.168Z,15.00
2018-11-05T16:50:27.961Z,15.00
2018-11-05T16:52:57.164Z,14.90
2018-11-05T16:55:25.655Z,14.90
2018-11-05T16:57:53.856Z,14.80
2018-11-05T17:00:22.026Z,14.70
2018-11-05T17:02:50.510Z,14.70
2018-11-05T17:05:18.547Z,14.70
2018-11-05T17:07:46.701Z,14.70
2018-11-05T17:10:15.290Z,14.60
2018-11-05T17:12:43.978Z,14.50
2018-11-05T17:15:13.455Z,14.50
2018-11-05T17:17:42.104Z,14.50
2018-11-05T17:20:11.806Z,14.40
2018-11-05T17:22:40.546Z,14.40
2018-11-05T17:25:09.364Z,14.50
2018-11-05T17:27:38.022Z,14.30
2018-11-05T17:30:08.955Z,14.30
2018-11-05T17:32:37.310Z,14.30
2018-11-05T17:35:05.983Z,14.30
2018-11-05T17:37:34.172Z,14.30
2018-11-05T17:40:02.339Z,14.20
2018-11-05T17:42:30.572Z,14.30
2018-11-05T17:44:58.949Z,14.40
2018-11-05T17:47:27.285Z,14.50
2018-11-05T17:49:55.512Z,14.40
2018-11-05T17:52:23.862Z,14.30
2018-11-05T17:54:52.152Z,14.40
2018-11-05T17:57:20.348Z,14.40
2018-11-05T17:59:48.539Z,14.30
2018-11-05T18:02:24.044Z,14.30
2018-11-05T18:04:53.951Z,14.30
2018-11-05T18:07:22.523Z,14.30
2018-11-05T18:09:51.187Z,14.30
2018-11-05T18:12:19.340Z,14.30
2018-11-05T18:33:05.248Z,14.40
2018-11-05T18:35:33.368Z,14.30
2018-11-05T18:38:01.626Z,14.40
2018-11-05T18:40:29.772Z,14.30
2018-11-05T18:42:58.067Z,14.30
2018-11-05T18:45:26.432Z,14.30
2018-11-05T18:47:54.520Z,14.20
2018-11-05T18:50:22.744Z,14.20
2018-11-05T18:52:50.923Z,14.20
2018-11-05T18:55:19.095Z,14.20
2018-11-05T18:57:47.288Z,14.30
2018-11-05T19:00:22.597Z,14.20
2018-11-05T19:02:51.565Z,14.20
2018-11-05T19:05:21.866Z,14.20
2018-11-05T19:07:50.239Z,14.10
2018-11-05T19:10:23.595Z,14.10
2018-11-05T19:12:52.471Z,14.10
2018-11-05T19:15:20.925Z,14.10
2018-11-05T19:17:49.900Z,14.10
2018-11-05T19:20:18.485Z,14.10
2018-11-05T19:22:47.968Z,14.10
2018-11-05T19:25:16.877Z,14.10
2018-11-05T19:27:45.192Z,14.00
2018-11-05T19:30:15.936Z,14.00
2018-11-05T19:32:44.499Z,13.90
2018-11-05T19:35:13.272Z,13.90
2018-11-05T19:37:41.968Z,13.90
2018-11-05T19:40:11.471Z,13.80
2018-11-05T19:42:40.346Z,13.80
2018-11-05T19:45:10.996Z,13.80
2018-11-05T19:47:39.234Z,13.80
2018-11-05T19:50:09.695Z,13.90
2018-11-05T19:52:37.992Z,13.80
2018-11-05T19:55:07.664Z,13.80
2018-11-05T19:57:36.327Z,13.80
2018-11-05T20:00:06.760Z,13.70
2018-11-05T20:02:35.005Z,13.70
2018-11-05T20:05:03.312Z,13.60
2018-11-05T20:07:31.489Z,13.70
2018-11-05T20:10:00.267Z,13.60
2018-11-05T20:12:28.426Z,13.60
2018-11-05T20:14:56.694Z,13.60
2018-11-05T20:17:24.779Z,13.50
2018-11-05T20:19:54.870Z,13.50
2018-11-05T20:22:25.268Z,13.60
2018-11-05T20:24:53.752Z,13.50
2018-11-05T20:27:21.891Z,13.40
2018-11-05T20:29:50.177Z,13.50
2018-11-05T20:32:18.794Z,13.40
2018-11-05T20:34:46.496Z,13.40
2018-11-05T20:37:14.681Z,13.50
2018-11-05T20:39:42.945Z,13.40
2018-11-05T20:42:11.044Z,13.40
2018-11-05T20:44:39.198Z,13.40
2018-11-05T20:47:08.234Z,13.30
2018-11-05T20:49:36.625Z,13.30
2018-11-05T20:52:04.865Z,13.30
2018-11-05T20:54:32.980Z,13.30
2018-11-05T20:57:01.068Z,13.30
2018-11-05T20:59:30.324Z,13.40
2018-11-05T21:01:58.456Z,13.40
2018-11-05T21:04:26.678Z,13.40
2018-11-05T21:06:54.871Z,13.40
2018-11-05T21:09:22.980Z,13.40
2018-11-05T21:11:51.164Z,13.50
2018-11-05T21:14:19.346Z,13.40
2018-11-05T21:16:47.535Z,13.40
2018-11-05T21:19:15.680Z,13.40
2018-11-05T21:21:44.068Z,13.40
2018-11-05T21:24:14.879Z,13.50
2018-11-05T21:26:43.112Z,13.40
2018-11-05T21:29:11.299Z,13.50
2018-11-05T21:31:39.430Z,13.40
2018-11-05T21:34:07.708Z,13.40
2018-11-05T21:36:35.923Z,13.40
2018-11-05T21:39:06.648Z,13.40
2018-11-05T21:41:34.744Z,13.50
2018-11-05T21:44:02.849Z,13.40
2018-11-05T21:46:31.068Z,13.40
2018-11-05T21:48:59.200Z,13.30
2018-11-05T21:51:27.413Z,13.30
2018-11-05T21:53:55.658Z,13.20
2018-11-05T21:56:23.739Z,13.30
2018-11-05T21:58:51.916Z,13.20
2018-11-05T22:01:20.287Z,13.30
2018-11-05T22:03:48.458Z,13.30
2018-11-05T22:06:16.587Z,13.30
2018-11-05T22:08:44.683Z,13.30
2018-11-05T22:11:12.885Z,13.30
2018-11-05T22:13:41.038Z,13.30
2018-11-05T22:16:09.287Z,13.30
2018-11-05T22:18:37.434Z,13.30
2018-11-05T22:21:05.575Z,13.30
2018-11-05T22:23:33.743Z,13.20
2018-11-05T22:26:01.876Z,13.20
2018-11-05T22:28:30.074Z,13.20
2018-11-05T22:30:58.261Z,13.20
2018-11-05T22:33:26.488Z,13.20
2018-11-05T22:35:54.708Z,13.10
2018-11-05T22:38:23.071Z,13.00
2018-11-05T22:40:51.253Z,13.00
2018-11-05T22:43:19.468Z,13.10
2018-11-05T22:45:47.624Z,13.10
2018-11-05T22:48:15.931Z,13.10
2018-11-05T22:50:44.093Z,13.10
2018-11-05T22:53:12.231Z,13.10
2018-11-05T22:55:40.404Z,13.20
2018-11-05T22:58:08.795Z,13.10
2018-11-05T23:01:08.818Z,13.20
2018-11-05T23:03:37.023Z,13.20
2018-11-05T23:06:05.153Z,13.10
2018-11-05T23:08:33.344Z,13.10
2018-11-05T23:11:01.522Z,13.00
2018-11-05T23:13:29.701Z,13.00
2018-11-05T23:15:57.852Z,13.00
2018-11-05T23:18:26.021Z,13.00
2018-11-05T23:20:54.216Z,13.00
2018-11-05T23:23:22.416Z,12.90
2018-11-05T23:25:50.575Z,13.00
2018-11-05T23:28:18.740Z,12.90
2018-11-05T23:30:46.952Z,12.90
2018-11-05T23:33:15.378Z,12.90
2018-11-05T23:35:43.545Z,12.90
2018-11-05T23:38:11.616Z,12.90
2018-11-05T23:40:39.841Z,13.00
2018-11-05T23:43:07.968Z,13.00
2018-11-05T23:45:36.187Z,13.10
2018-11-05T23:48:04.426Z,13.00
2018-11-05T23:50:32.633Z,13.00
2018-11-05T23:53:00.808Z,12.90
2018-11-05T23:55:28.956Z,12.90
2018-11-05T23:57:57.131Z,12.90
